Malaspina — WI6803 — position and weather

sailwx.info

Track history (hours):
 
Tides and Currents Weather Stations Pressure Air Temp Water Temp Dewpoint Dewpoint Depression Visibility Wind Speed Wind Dir Waves Ship Positions

Malaspina

Owner: ALASKA, STATE OF, ANCHORAGE, AK. More information available from US FCC via Universal Licensing System and Coast Guard Vessel Documentation Center.

Last reported at 2019-Jun-15 04:33 UTC. Time now 2019-Jun-16 14:35 UTC.
Position N 54°48' W 130°59'.

Type: Ship. MMSI: 367143000.

Date/timePositionNaut miles runAvg speedWind from/ knotsBaromVisibWave heightAir tempDewpointWater temp
2019-Jun-15 04:33N 54°48' W 130°59'117.4
2019-Jun-15 04:29N 54°47' W 130°57'917.1
2019-Jun-15 03:59N 54°40' W 130°48'816.7
2019-Jun-15 03:30N 54°34' W 130°40'816.9
2019-Jun-15 03:00N 54°26' W 130°37'816.4
2019-Jun-15 02:30N 54°18' W 130°34'816.1
2019-Jun-15 02:00N 54°13' W 130°22'5 9.1
2019-Jun-15 01:30N 54°18' W 130°22'0 0.5
2019-Jun-15 00:43N 54°18' W 130°21'0 0.0
2019-Jun-15 00:19N 54°18' W 130°21'0 0.0
2019-Jun-14 23:55N 54°18' W 130°21'0 0.0
2019-Jun-14 23:25N 54°18' W 130°21'0 0.0
2019-Jun-14 22:55N 54°18' W 130°21'0 0.0
2019-Jun-14 22:25N 54°18' W 130°21'0 0.0
2019-Jun-14 21:58N 54°18' W 130°21'0 0.0
2019-Jun-14 21:28N 54°18' W 130°21'1 1.7
2019-Jun-14 21:00N 54°17' W 130°22'4 8.0
2019-Jun-14 20:30N 54°13' W 130°23'816.5
2019-Jun-14 20:01N 54°18' W 130°34'916.7
2019-Jun-14 19:30N 54°26' W 130°37'816.8
2019-Jun-14 19:00N 54°34' W 130°40'816.4
2019-Jun-14 18:30N 54°41' W 130°49'816.2
2019-Jun-14 18:00N 54°47' W 130°58'  
2019-Jun-11 14:59N 54°37' W 130°44'917.2
2019-Jun-11 14:30N 54°29' W 130°38'918.5
2019-Jun-11 14:00N 54°20' W 130°36'917.5
2019-Jun-11 13:31N 54°14' W 130°26'4 7.7
2019-Jun-11 13:00N 54°17' W 130°22'1 1.8
2019-Jun-11 12:28N 54°18' W 130°21'0 0.0
2019-Jun-11 11:55N 54°18' W 130°21'0 0.0
2019-Jun-11 11:13N 54°18' W 130°21'0 0.0
2019-Jun-11 10:55N 54°18' W 130°21'0 0.0
2019-Jun-11 10:25N 54°18' W 130°21'0 0.0
2019-Jun-11 09:55N 54°18' W 130°21'0 0.0
2019-Jun-11 09:25N 54°18' W 130°21'0 0.0
2019-Jun-11 08:52N 54°18' W 130°21'0 0.1
2019-Jun-11 08:30N 54°18' W 130°21'4 8.7
2019-Jun-11 08:00N 54°13' W 130°21'713.4
2019-Jun-11 07:30N 54°17' W 130°32'714.4
2019-Jun-11 07:00N 54°23' W 130°36'815.6
2019-Jun-11 06:30N 54°31' W 130°39'815.7
2019-Jun-11 05:59N 54°38' W 130°45'1015.5
2019-Jun-11 05:20N 54°46' W 130°56'  
2019-Jun-08 05:38N 54°51' W 131°04'514.2
2019-Jun-08 05:16N 54°47' W 130°59'515.7
2019-Jun-08 04:59N 54°44' W 130°53'715.6
2019-Jun-08 04:30N 54°39' W 130°43'815.5
2019-Jun-08 04:00N 54°32' W 130°39'816.7
2019-Jun-08 03:30N 54°24' W 130°36'815.9
2019-Jun-08 03:00N 54°16' W 130°31'612.9
2019-Jun-08 02:30N 54°14' W 130°21'4 6.9
2019-Jun-08 01:55N 54°18' W 130°21'0 0.0
2019-Jun-08 01:25N 54°18' W 130°21'0 0.0
2019-Jun-08 00:52N 54°18' W 130°21'0 0.0
2019-Jun-08 00:25N 54°18' W 130°21'0 0.0
2019-Jun-07 23:49N 54°18' W 130°21'0 0.0
2019-Jun-07 23:25N 54°18' W 130°21'0 0.0
2019-Jun-07 22:58N 54°18' W 130°21'0 0.0
2019-Jun-07 22:28N 54°18' W 130°21'0 0.0
2019-Jun-07 21:59N 54°18' W 130°21'1 2.5
2019-Jun-07 21:30N 54°17' W 130°22'4 7.3
2019-Jun-07 21:00N 54°13' W 130°25'815.7
2019-Jun-07 20:30N 54°18' W 130°35'815.5
2019-Jun-07 20:00N 54°26' W 130°38'815.6
2019-Jun-07 19:30N 54°34' W 130°40'815.3
2019-Jun-07 19:00N 54°40' W 130°48'815.3
2019-Jun-07 18:29N 54°46' W 130°56'  
Track history (hours):
 
Tides and Currents Weather Stations Pressure Air Temp Water Temp Dewpoint Dewpoint Depression Visibility Wind Speed Wind Dir Waves Ship Positions

Malaspina

Owner: ALASKA, STATE OF, ANCHORAGE, AK. More information available from US FCC via Universal Licensing System and Coast Guard Vessel Documentation Center.

Last reported at 2019-Jun-15 04:33 UTC. Time now 2019-Jun-16 14:35 UTC.
Position N 54°48' W 130°59'.

Type: Ship. MMSI: 367143000.

Date/timePositionNaut miles runAvg speedWind from/ knotsBaromVisibWave heightAir tempDewpointWater temp
2019-Jun-15 04:33N 54°48' W 130°59'117.4
2019-Jun-15 04:29N 54°47' W 130°57'917.1
2019-Jun-15 03:59N 54°40' W 130°48'816.7
2019-Jun-15 03:30N 54°34' W 130°40'816.9
2019-Jun-15 03:00N 54°26' W 130°37'816.4
2019-Jun-15 02:30N 54°18' W 130°34'816.1
2019-Jun-15 02:00N 54°13' W 130°22'5 9.1
2019-Jun-15 01:30N 54°18' W 130°22'0 0.5
2019-Jun-15 00:43N 54°18' W 130°21'0 0.0
2019-Jun-15 00:19N 54°18' W 130°21'0 0.0
2019-Jun-14 23:55N 54°18' W 130°21'0 0.0
2019-Jun-14 23:25N 54°18' W 130°21'0 0.0
2019-Jun-14 22:55N 54°18' W 130°21'0 0.0
2019-Jun-14 22:25N 54°18' W 130°21'0 0.0
2019-Jun-14 21:58N 54°18' W 130°21'0 0.0
2019-Jun-14 21:28N 54°18' W 130°21'1 1.7
2019-Jun-14 21:00N 54°17' W 130°22'4 8.0
2019-Jun-14 20:30N 54°13' W 130°23'816.5
2019-Jun-14 20:01N 54°18' W 130°34'916.7
2019-Jun-14 19:30N 54°26' W 130°37'816.8
2019-Jun-14 19:00N 54°34' W 130°40'816.4
2019-Jun-14 18:30N 54°41' W 130°49'816.2
2019-Jun-14 18:00N 54°47' W 130°58'  
2019-Jun-11 14:59N 54°37' W 130°44'917.2
2019-Jun-11 14:30N 54°29' W 130°38'918.5
2019-Jun-11 14:00N 54°20' W 130°36'917.5
2019-Jun-11 13:31N 54°14' W 130°26'4 7.7
2019-Jun-11 13:00N 54°17' W 130°22'1 1.8
2019-Jun-11 12:28N 54°18' W 130°21'0 0.0
2019-Jun-11 11:55N 54°18' W 130°21'0 0.0
2019-Jun-11 11:13N 54°18' W 130°21'0 0.0
2019-Jun-11 10:55N 54°18' W 130°21'0 0.0
2019-Jun-11 10:25N 54°18' W 130°21'0 0.0
2019-Jun-11 09:55N 54°18' W 130°21'0 0.0
2019-Jun-11 09:25N 54°18' W 130°21'0 0.0
2019-Jun-11 08:52N 54°18' W 130°21'0 0.1
2019-Jun-11 08:30N 54°18' W 130°21'4 8.7
2019-Jun-11 08:00N 54°13' W 130°21'713.4
2019-Jun-11 07:30N 54°17' W 130°32'714.4
2019-Jun-11 07:00N 54°23' W 130°36'815.6
2019-Jun-11 06:30N 54°31' W 130°39'815.7
2019-Jun-11 05:59N 54°38' W 130°45'1015.5
2019-Jun-11 05:20N 54°46' W 130°56'  
2019-Jun-08 05:38N 54°51' W 131°04'514.2
2019-Jun-08 05:16N 54°47' W 130°59'515.7
2019-Jun-08 04:59N 54°44' W 130°53'715.6
2019-Jun-08 04:30N 54°39' W 130°43'815.5
2019-Jun-08 04:00N 54°32' W 130°39'816.7
2019-Jun-08 03:30N 54°24' W 130°36'815.9
2019-Jun-08 03:00N 54°16' W 130°31'612.9
2019-Jun-08 02:30N 54°14' W 130°21'4 6.9
2019-Jun-08 01:55N 54°18' W 130°21'0 0.0
2019-Jun-08 01:25N 54°18' W 130°21'0 0.0
2019-Jun-08 00:52N 54°18' W 130°21'0 0.0
2019-Jun-08 00:25N 54°18' W 130°21'0 0.0
2019-Jun-07 23:49N 54°18' W 130°21'0 0.0
2019-Jun-07 23:25N 54°18' W 130°21'0 0.0
2019-Jun-07 22:58N 54°18' W 130°21'0 0.0
2019-Jun-07 22:28N 54°18' W 130°21'0 0.0
2019-Jun-07 21:59N 54°18' W 130°21'1 2.5
2019-Jun-07 21:30N 54°17' W 130°22'4 7.3
2019-Jun-07 21:00N 54°13' W 130°25'815.7
2019-Jun-07 20:30N 54°18' W 130°35'815.5
2019-Jun-07 20:00N 54°26' W 130°38'815.6
2019-Jun-07 19:30N 54°34' W 130°40'815.3
2019-Jun-07 19:00N 54°40' W 130°48'815.3
2019-Jun-07 18:29N 54°46' W 130°56'  

Dump ship's entire track history